Time;durP1;ratioP1;P1;durP2;ratioP2;P2;SDS_P1;SDS_P2;PMS_P1;PMS_P2;Temp;Humidity;BMP_temperature;BMP_pressure;BME280_temperature;BME280_humidity;BME280_pressure;Samples;Min_cycle;Max_cycle;Signal;HPM_P1;HPM_P2
2022/03/17 00:00:14;;;;;;;21.00;13.95;;;10.20;99.90;;;;;;5009781;28;20088;-76
2022/03/17 00:02:40;;;;;;;20.40;14.38;;;10.20;99.90;;;;;;5038811;28;20829;-74
2022/03/17 00:05:08;;;;;;;20.42;14.05;;;10.20;99.90;;;;;;5009658;28;20049;-76
2022/03/17 00:07:38;;;;;;;21.00;14.02;;;10.20;99.90;;;;;;5010012;28;20069;-75
2022/03/17 00:10:15;;;;;;;20.08;13.50;;;10.20;99.90;;;;;;5009376;28;20136;-73
2022/03/17 00:12:43;;;;;;;22.35;13.85;;;10.20;99.90;;;;;;5024813;28;20401;-75
2022/03/17 00:15:09;;;;;;;23.52;14.65;;;10.20;99.90;;;;;;5020502;28;20056;-75
2022/03/17 00:17:35;;;;;;;21.92;13.55;;;10.20;99.90;;;;;;5008281;28;20093;-75
2022/03/17 00:20:02;;;;;;;20.90;14.23;;;10.10;99.90;;;;;;5010561;28;20074;-76
2022/03/17 00:22:28;;;;;;;21.67;14.95;;;10.20;99.90;;;;;;5010178;28;20053;-71
2022/03/17 00:24:57;;;;;;;20.60;13.43;;;10.10;99.90;;;;;;5012444;28;20042;-74
2022/03/17 00:27:22;;;;;;;20.23;14.57;;;10.10;99.90;;;;;;5017895;28;20520;-76
2022/03/17 00:29:50;;;;;;;20.42;13.32;;;10.20;99.90;;;;;;5017376;28;20037;-75
2022/03/17 00:32:16;;;;;;;22.33;13.95;;;10.10;99.90;;;;;;5017532;28;20069;-73
2022/03/17 00:37:26;;;;;;;20.92;13.63;;;10.10;99.90;;;;;;5012688;28;20046;-74
2022/03/17 00:39:53;;;;;;;21.58;13.98;;;10.10;99.90;;;;;;5030023;28;20494;-75
2022/03/17 00:42:20;;;;;;;22.13;14.10;;;10.00;99.90;;;;;;5028470;28;20096;-75
2022/03/17 00:44:46;;;;;;;21.75;14.90;;;10.00;99.90;;;;;;5010596;28;20054;-73
2022/03/17 00:47:13;;;;;;;21.70;14.70;;;10.00;99.90;;;;;;5020384;28;20053;-75
2022/03/17 00:49:38;;;;;;;20.77;14.40;;;10.00;99.90;;;;;;5018949;28;20061;-74
2022/03/17 00:52:09;;;;;;;24.17;14.50;;;10.00;99.90;;;;;;4997655;28;20386;-74
2022/03/17 00:54:39;;;;;;;22.55;14.05;;;10.00;99.90;;;;;;5010364;28;20140;-74
2022/03/17 00:57:07;;;;;;;22.50;14.30;;;10.00;99.90;;;;;;5010409;28;20053;-75
2022/03/17 00:59:33;;;;;;;20.73;14.73;;;9.90;99.90;;;;;;5025170;28;20069;-76
2022/03/17 01:01:59;;;;;;;20.92;13.98;;;9.90;99.90;;;;;;5024343;28;20049;-77
2022/03/17 01:04:25;;;;;;;22.80;14.98;;;10.00;99.90;;;;;;5011122;28;20505;-76
2022/03/17 01:06:50;;;;;;;21.48;13.82;;;10.00;99.90;;;;;;5017089;28;20045;-74
2022/03/17 01:09:16;;;;;;;20.92;14.38;;;9.90;99.90;;;;;;5013509;28;20079;-75
2022/03/17 01:11:42;;;;;;;23.05;15.15;;;9.90;99.90;;;;;;5031447;28;20045;-75
2022/03/17 01:14:08;;;;;;;21.75;14.23;;;9.90;99.90;;;;;;5019286;28;20058;-74
2022/03/17 01:16:34;;;;;;;20.85;13.70;;;10.00;99.90;;;;;;5008788;28;20042;-72
2022/03/17 01:18:59;;;;;;;21.60;13.98;;;9.90;99.90;;;;;;5012738;28;20371;-75
2022/03/17 01:21:25;;;;;;;24.50;15.43;;;9.90;99.90;;;;;;5019615;28;20056;-74
2022/03/17 01:23:51;;;;;;;21.60;13.90;;;9.90;99.90;;;;;;5024175;28;20104;-76
2022/03/17 01:26:16;;;;;;;21.45;14.65;;;9.90;99.90;;;;;;5018710;28;20501;-75
2022/03/17 01:28:42;;;;;;;22.15;13.98;;;9.90;99.90;;;;;;4994805;28;20077;-75
2022/03/17 01:31:08;;;;;;;22.67;14.50;;;9.90;99.90;;;;;;5019519;28;20437;-77
2022/03/17 01:33:34;;;;;;;22.00;13.48;;;9.90;99.90;;;;;;5011392;28;20061;-77
2022/03/17 01:36:00;;;;;;;24.35;14.93;;;9.90;99.90;;;;;;5022743;28;20049;-75
2022/03/17 01:38:26;;;;;;;21.58;13.30;;;9.90;99.90;;;;;;5014833;28;20034;-77
2022/03/17 01:40:52;;;;;;;22.58;14.25;;;10.20;99.90;;;;;;5010162;28;20112;-75
2022/03/17 01:43:20;;;;;;;22.42;14.98;;;9.90;99.90;;;;;;5019880;28;20046;-73
2022/03/17 01:45:45;;;;;;;23.10;14.82;;;9.90;99.90;;;;;;5012740;28;20056;-74
2022/03/17 01:48:11;;;;;;;23.30;14.98;;;9.90;99.90;;;;;;5011215;28;20041;-77
2022/03/17 01:50:37;;;;;;;21.67;13.57;;;9.80;99.90;;;;;;5007646;28;20128;-76
2022/03/17 01:53:03;;;;;;;23.85;14.40;;;9.90;99.90;;;;;;5021152;28;20053;-75
2022/03/17 01:55:30;;;;;;;19.52;13.60;;;9.90;99.90;;;;;;5028721;28;20060;-74
2022/03/17 01:57:56;;;;;;;21.17;13.38;;;9.80;99.90;;;;;;5028081;28;20033;-76
2022/03/17 02:00:22;;;;;;;21.15;13.43;;;10.10;99.90;;;;;;5023495;28;20494;-73
2022/03/17 02:02:51;;;;;;;20.55;13.57;;;9.90;99.90;;;;;;5029004;28;20041;-75
2022/03/17 02:05:17;;;;;;;23.20;13.75;;;9.90;99.90;;;;;;5027128;28;20049;-75
2022/03/17 02:07:51;;;;;;;21.90;13.38;;;9.90;99.90;;;;;;5012011;28;20493;-75
2022/03/17 02:10:17;;;;;;;21.85;13.63;;;9.90;99.90;;;;;;5012226;28;20045;-77
2022/03/17 02:15:28;;;;;;;20.88;13.50;;;9.90;99.90;;;;;;5018347;28;20474;-75
2022/03/17 02:17:55;;;;;;;22.75;14.00;;;9.90;99.90;;;;;;5019512;28;21379;-74
2022/03/17 02:20:24;;;;;;;22.02;13.95;;;9.90;99.90;;;;;;5009416;28;20045;-75
2022/03/17 02:22:51;;;;;;;21.75;13.40;;;10.00;99.90;;;;;;5021601;28;20042;-72
2022/03/17 02:25:35;;;;;;;20.02;13.07;;;9.90;99.90;;;;;;5011976;28;20054;-75
2022/03/17 02:28:03;;;;;;;19.40;13.55;;;9.90;99.90;;;;;;5009777;28;20036;-75
2022/03/17 02:30:31;;;;;;;22.38;14.65;;;9.90;99.90;;;;;;5009029;28;20064;-75
2022/03/17 02:32:59;;;;;;;22.55;14.20;;;10.00;99.90;;;;;;5018563;28;20052;-73
2022/03/17 02:35:25;;;;;;;22.90;14.55;;;10.10;99.90;;;;;;5019034;28;20112;-73
2022/03/17 02:37:51;;;;;;;18.95;13.00;;;10.00;99.90;;;;;;5015225;28;20115;-74
2022/03/17 02:40:17;;;;;;;20.30;12.32;;;10.00;99.90;;;;;;5016922;28;20049;-76
2022/03/17 02:42:43;;;;;;;18.10;12.38;;;9.90;99.90;;;;;;5008470;28;20494;-75
2022/03/17 02:45:12;;;;;;;22.15;13.15;;;10.00;99.90;;;;;;5010122;28;20100;-74
2022/03/17 02:47:39;;;;;;;22.33;13.13;;;10.00;99.90;;;;;;5014431;28;20532;-70
2022/03/17 02:50:07;;;;;;;20.30;13.05;;;10.00;99.90;;;;;;5009205;28;20037;-74
2022/03/17 02:52:34;;;;;;;20.58;13.07;;;10.00;99.90;;;;;;5017353;28;20062;-76
2022/03/17 02:55:00;;;;;;;20.65;13.57;;;10.00;99.90;;;;;;5015983;28;20457;-74
2022/03/17 02:57:25;;;;;;;21.75;14.30;;;10.00;99.90;;;;;;5018789;28;20509;-73
2022/03/17 02:59:54;;;;;;;21.10;13.00;;;10.00;99.90;;;;;;5010335;28;20126;-74
2022/03/17 03:02:22;;;;;;;20.92;14.43;;;10.00;99.90;;;;;;5017622;28;20082;-75
2022/03/17 03:04:48;;;;;;;20.33;12.52;;;10.00;99.90;;;;;;5028810;28;20103;-75
2022/03/17 03:07:14;;;;;;;20.38;13.23;;;10.10;99.90;;;;;;5023644;28;20053;-76
2022/03/17 03:09:40;;;;;;;20.90;13.38;;;10.00;99.90;;;;;;5011228;28;20052;-74
2022/03/17 03:12:06;;;;;;;23.05;13.50;;;10.00;99.90;;;;;;5014649;28;20314;-72
2022/03/17 03:14:32;;;;;;;23.55;13.98;;;10.00;99.90;;;;;;4986410;28;20454;-75
2022/03/17 03:16:58;;;;;;;21.48;13.50;;;10.00;99.90;;;;;;5017129;28;20116;-75
2022/03/17 03:19:24;;;;;;;22.42;14.52;;;10.00;99.90;;;;;;5007374;28;20042;-74
2022/03/17 03:21:50;;;;;;;21.02;13.45;;;10.00;99.90;;;;;;4992762;28;20050;-75
2022/03/17 03:24:16;;;;;;;23.77;14.13;;;10.30;99.90;;;;;;4989868;28;20046;-74
2022/03/17 03:26:44;;;;;;;18.77;12.93;;;10.00;99.90;;;;;;5010676;28;20422;-75
2022/03/17 03:29:25;;;;;;;21.92;13.65;;;10.00;99.90;;;;;;5008908;28;20038;-72
2022/03/17 03:32:03;;;;;;;20.77;12.93;;;10.00;99.90;;;;;;5009936;28;20104;-74
2022/03/17 03:34:30;;;;;;;21.15;14.13;;;10.00;99.90;;;;;;5022816;28;20197;-76
2022/03/17 03:39:42;;;;;;;19.73;12.68;;;10.10;99.90;;;;;;5012254;28;20057;-74
2022/03/17 03:42:08;;;;;;;19.35;12.95;;;10.00;99.90;;;;;;5012373;28;20049;-75
2022/03/17 03:44:36;;;;;;;21.33;13.82;;;10.00;99.90;;;;;;5009900;28;20486;-74
2022/03/17 03:47:02;;;;;;;23.42;13.60;;;9.90;99.90;;;;;;5019042;28;20060;-75
2022/03/17 03:49:28;;;;;;;20.38;13.32;;;10.00;99.90;;;;;;4991394;28;20128;-75
2022/03/17 03:51:53;;;;;;;20.70;13.32;;;10.00;99.90;;;;;;5011744;28;20125;-74
2022/03/17 03:54:19;;;;;;;21.17;13.60;;;10.20;99.90;;;;;;5002350;28;20065;-75
2022/03/17 03:56:56;;;;;;;24.13;14.10;;;10.00;99.90;;;;;;5029621;28;20056;-75
2022/03/17 03:59:25;;;;;;;21.85;12.93;;;10.00;99.90;;;;;;5018126;28;20041;-74
2022/03/17 04:02:06;;;;;;;20.88;13.65;;;10.00;99.90;;;;;;5012362;28;20049;-75
2022/03/17 04:04:34;;;;;;;20.35;13.13;;;10.00;99.90;;;;;;5018486;28;20096;-75
2022/03/17 04:07:02;;;;;;;20.42;13.80;;;10.00;99.90;;;;;;5012678;28;20073;-72
2022/03/17 04:09:30;;;;;;;21.90;14.13;;;10.00;99.90;;;;;;5014035;28;20406;-75
2022/03/17 04:11:56;;;;;;;20.27;13.93;;;10.10;99.90;;;;;;5015932;28;20053;-75
2022/03/17 04:14:23;;;;;;;20.17;13.55;;;10.10;99.90;;;;;;5014125;28;20045;-74
2022/03/17 04:16:49;;;;;;;23.08;14.40;;;10.00;99.90;;;;;;5014715;28;20041;-74
2022/03/17 04:19:15;;;;;;;21.60;14.10;;;10.00;99.90;;;;;;5024720;28;20490;-74
2022/03/17 04:21:42;;;;;;;20.40;13.70;;;10.00;99.90;;;;;;5030614;28;20490;-74
2022/03/17 04:24:08;;;;;;;22.67;14.23;;;10.00;99.90;;;;;;5023731;28;20052;-75
2022/03/17 04:26:34;;;;;;;20.42;13.68;;;10.00;99.90;;;;;;5018854;28;20185;-74
2022/03/17 04:29:00;;;;;;;19.92;13.93;;;10.00;99.90;;;;;;5017818;28;20156;-71
2022/03/17 04:31:27;;;;;;;20.88;13.95;;;9.60;99.90;;;;;;5029208;28;20398;-74
2022/03/17 04:33:53;;;;;;;21.10;14.70;;;10.00;99.90;;;;;;5026493;28;20053;-76
2022/03/17 04:36:19;;;;;;;21.20;14.02;;;10.10;99.90;;;;;;5034978;28;20076;-75
2022/03/17 04:38:44;;;;;;;20.27;14.07;;;10.00;99.90;;;;;;5018587;28;20076;-75
2022/03/17 04:41:11;;;;;;;21.20;13.75;;;10.10;99.90;;;;;;5034726;28;20499;-76
2022/03/17 04:43:38;;;;;;;21.35;14.45;;;10.10;99.90;;;;;;5036017;28;20076;-75
2022/03/17 04:46:04;;;;;;;21.40;14.10;;;10.10;99.90;;;;;;5036156;28;20046;-76
2022/03/17 04:48:31;;;;;;;22.95;14.20;;;10.10;99.90;;;;;;5035627;28;20541;-76
2022/03/17 04:50:57;;;;;;;21.60;14.18;;;10.30;99.90;;;;;;5035702;28;20049;-76
2022/03/17 04:53:32;;;;;;;23.88;15.18;;;10.10;99.90;;;;;;5034606;28;20206;-76
2022/03/17 04:56:07;;;;;;;19.63;14.00;;;10.10;99.90;;;;;;5035133;28;20056;-75
2022/03/17 04:58:36;;;;;;;21.67;14.30;;;10.10;99.90;;;;;;5035668;28;20045;-75
2022/03/17 05:01:03;;;;;;;23.63;14.15;;;10.10;99.90;;;;;;5035479;28;20052;-75
2022/03/17 05:03:29;;;;;;;22.90;15.15;;;10.10;99.90;;;;;;5033895;28;20056;-75
2022/03/17 05:05:55;;;;;;;22.95;15.27;;;10.10;99.90;;;;;;5035640;28;20047;-76
2022/03/17 05:08:21;;;;;;;24.88;15.45;;;10.30;99.90;;;;;;5035391;28;20045;-76
2022/03/17 05:10:47;;;;;;;21.63;14.70;;;10.20;99.90;;;;;;5035251;28;20052;-75
2022/03/17 05:13:15;;;;;;;24.65;16.85;;;10.10;99.90;;;;;;5035339;28;20068;-75
2022/03/17 05:15:41;;;;;;;26.13;17.63;;;10.10;99.90;;;;;;5035399;28;20050;-74
2022/03/17 05:18:08;;;;;;;28.15;18.30;;;10.10;99.90;;;;;;5035709;28;20449;-76
2022/03/17 05:20:35;;;;;;;28.02;19.10;;;10.00;99.90;;;;;;5034998;28;20053;-74
2022/03/17 05:23:04;;;;;;;32.83;20.10;;;10.00;99.90;;;;;;5035271;28;20050;-74
2022/03/17 05:25:31;;;;;;;30.63;20.05;;;9.90;99.90;;;;;;5034564;28;20053;-74
2022/03/17 05:27:58;;;;;;;34.10;20.60;;;9.90;99.90;;;;;;5034450;28;20064;-73
2022/03/17 05:30:24;;;;;;;32.03;20.60;;;9.80;99.90;;;;;;5034761;28;20410;-74
2022/03/17 05:32:49;;;;;;;31.00;20.15;;;9.70;99.90;;;;;;5033957;28;20111;-73
2022/03/17 05:35:16;;;;;;;35.47;21.05;;;9.70;99.90;;;;;;5033929;28;20529;-74
2022/03/17 05:37:42;;;;;;;37.47;22.25;;;9.60;99.90;;;;;;5034936;28;20099;-74
2022/03/17 05:40:14;;;;;;;34.03;21.27;;;9.60;99.90;;;;;;5034689;28;20053;-75
2022/03/17 05:42:53;;;;;;;33.15;20.95;;;9.50;99.90;;;;;;5034513;28;20513;-74
2022/03/17 05:45:19;;;;;;;36.17;22.13;;;9.50;99.90;;;;;;5034831;28;20081;-75
2022/03/17 05:47:47;;;;;;;38.55;22.77;;;9.70;99.90;;;;;;5034632;28;20089;-75
2022/03/17 05:50:15;;;;;;;39.78;23.75;;;9.50;99.90;;;;;;5034541;28;20124;-75
2022/03/17 05:52:42;;;;;;;37.95;23.30;;;9.40;99.90;;;;;;5034362;28;20045;-74
2022/03/17 05:55:10;;;;;;;35.88;23.17;;;9.40;99.90;;;;;;5034099;28;20049;-74
2022/03/17 05:57:37;;;;;;;39.63;24.02;;;9.40;99.90;;;;;;5033553;28;20045;-74
2022/03/17 06:00:04;;;;;;;36.38;23.20;;;9.40;99.90;;;;;;5034043;28;20509;-73
2022/03/17 06:02:31;;;;;;;22.40;12.50;;;9.40;99.90;;;;;;5033522;28;20146;-72
2022/03/17 06:04:56;;;;;;;10.40;6.28;;;9.30;99.90;;;;;;5033260;28;20045;-74
2022/03/17 06:07:22;;;;;;;6.75;4.70;;;9.20;99.90;;;;;;5033459;28;20052;-74
2022/03/17 06:09:48;;;;;;;6.78;4.65;;;9.10;99.90;;;;;;5033072;28;20037;-73
2022/03/17 06:12:15;;;;;;;4.97;3.65;;;9.10;99.90;;;;;;5034264;28;20102;-72
2022/03/17 06:14:43;;;;;;;6.57;4.68;;;8.80;99.90;;;;;;5033350;28;20482;-72
2022/03/17 06:17:12;;;;;;;5.65;3.70;;;8.70;99.90;;;;;;5034202;28;20045;-74
2022/03/17 06:19:38;;;;;;;6.20;4.40;;;8.60;99.90;;;;;;5034006;28;20498;-76
2022/03/17 06:22:04;;;;;;;6.97;4.85;;;8.50;99.90;;;;;;5034069;28;20041;-73
2022/03/17 06:24:30;;;;;;;8.27;5.55;;;8.50;99.90;;;;;;5033541;28;20494;-73
2022/03/17 06:26:55;;;;;;;9.30;5.97;;;8.50;99.90;;;;;;5033016;28;20132;-73
2022/03/17 06:29:21;;;;;;;10.52;6.38;;;8.40;99.90;;;;;;5032917;28;20509;-74
2022/03/17 06:31:47;;;;;;;10.93;6.13;;;8.40;99.90;;;;;;5033983;28;20478;-74
2022/03/17 06:34:13;;;;;;;11.07;6.50;;;8.40;99.90;;;;;;5034004;28;20061;-74
2022/03/17 06:36:38;;;;;;;11.00;6.35;;;8.40;99.90;;;;;;5033758;28;20053;-73
2022/03/17 06:39:04;;;;;;;11.45;7.45;;;8.30;99.90;;;;;;5032764;28;20053;-74
2022/03/17 06:41:30;;;;;;;13.57;7.45;;;8.30;99.90;;;;;;5033917;28;20049;-74
2022/03/17 06:43:55;;;;;;;10.88;7.00;;;8.30;99.90;;;;;;5033771;28;20124;-74
2022/03/17 06:46:21;;;;;;;12.82;6.75;;;8.30;99.90;;;;;;5033883;28;20516;-76
2022/03/17 06:48:47;;;;;;;9.30;5.32;;;8.20;99.90;;;;;;5032365;28;20050;-74
2022/03/17 06:51:12;;;;;;;9.00;4.68;;;8.20;99.90;;;;;;5032418;28;20408;-76
2022/03/17 06:53:38;;;;;;;11.60;4.50;;;8.10;99.90;;;;;;5032176;28;20096;-77
2022/03/17 06:56:04;;;;;;;10.02;4.40;;;8.10;99.90;;;;;;5033115;28;20049;-77
2022/03/17 06:58:30;;;;;;;12.25;4.63;;;8.10;99.90;;;;;;5033659;28;20111;-76
2022/03/17 07:00:57;;;;;;;10.20;4.82;;;8.10;99.90;;;;;;5031749;28;20111;-76
2022/03/17 07:03:22;;;;;;;12.00;4.50;;;8.10;99.90;;;;;;5015412;28;20403;-76
2022/03/17 07:05:48;;;;;;;10.90;4.63;;;8.60;99.90;;;;;;5032329;28;20049;-74
2022/03/17 07:08:13;;;;;;;8.68;3.88;;;8.10;99.90;;;;;;5032100;28;20052;-76
2022/03/17 07:10:39;;;;;;;7.70;3.90;;;8.10;99.90;;;;;;5033212;28;20128;-76
2022/03/17 07:13:05;;;;;;;9.43;4.45;;;8.10;99.90;;;;;;5033493;28;20071;-78
2022/03/17 07:15:31;;;;;;;9.30;5.20;;;8.10;99.90;;;;;;5032215;28;20045;-77
2022/03/17 07:17:56;;;;;;;8.30;4.07;;;8.10;99.90;;;;;;5033324;28;20041;-77
2022/03/17 07:20:23;;;;;;;7.05;3.05;;;8.10;99.90;;;;;;5032006;28;20041;-79
2022/03/17 07:22:50;;;;;;;10.73;3.40;;;8.30;99.90;;;;;;5032094;28;20049;-79
2022/03/17 07:25:21;;;;;;;7.78;3.72;;;8.50;99.90;;;;;;5031635;28;20453;-76
2022/03/17 07:27:48;;;;;;;7.07;2.58;;;8.00;99.90;;;;;;5035873;28;20049;-76
2022/03/17 07:30:19;;;;;;;6.28;1.70;;;8.20;99.90;;;;;;5034872;28;20057;-76
2022/03/17 07:32:48;;;;;;;4.60;1.48;;;8.00;99.90;;;;;;5035938;28;20447;-79
2022/03/17 07:35:14;;;;;;;4.15;1.48;;;8.00;99.90;;;;;;5037111;28;20068;-78
2022/03/17 07:37:41;;;;;;;4.75;1.13;;;7.90;99.90;;;;;;5035915;28;20128;-77
2022/03/17 07:40:08;;;;;;;6.43;0.88;;;7.90;99.90;;;;;;5036927;28;20045;-79
2022/03/17 07:42:34;;;;;;;2.58;0.90;;;7.90;99.90;;;;;;5037013;28;20057;-75
2022/03/17 07:45:00;;;;;;;2.42;0.77;;;7.80;99.90;;;;;;5036419;28;20091;-76
2022/03/17 07:47:26;;;;;;;5.70;0.80;;;8.00;99.90;;;;;;5036831;28;20041;-78
2022/03/17 07:49:52;;;;;;;5.20;1.00;;;7.90;99.90;;;;;;5036180;28;20056;-76
2022/03/17 07:52:18;;;;;;;3.58;0.63;;;8.00;99.90;;;;;;5041794;28;20077;-78
2022/03/17 07:54:46;;;;;;;3.03;0.65;;;7.90;99.90;;;;;;5042327;28;20136;-78
2022/03/17 07:57:12;;;;;;;5.43;0.85;;;8.10;99.90;;;;;;5022170;28;20046;-79
2022/03/17 07:59:38;;;;;;;4.90;1.00;;;8.20;99.90;;;;;;5019078;28;20053;-75
2022/03/17 08:02:04;;;;;;;3.65;0.90;;;8.00;99.90;;;;;;5036699;28;20041;-76
2022/03/17 08:04:31;;;;;;;4.57;0.80;;;8.00;99.90;;;;;;5035604;28;20046;-76
2022/03/17 08:07:00;;;;;;;4.75;0.90;;;8.00;99.90;;;;;;5036202;28;20481;-77
2022/03/17 08:09:27;;;;;;;2.95;0.80;;;7.90;99.90;;;;;;5036277;28;20394;-76
2022/03/17 08:11:52;;;;;;;3.08;0.80;;;8.00;99.90;;;;;;5036421;28;20053;-76
2022/03/17 08:14:18;;;;;;;4.43;0.80;;;7.90;99.90;;;;;;5035416;28;20046;-77
2022/03/17 08:16:44;;;;;;;4.57;1.15;;;7.90;99.90;;;;;;5019122;28;20128;-76
2022/03/17 08:19:14;;;;;;;5.38;0.70;;;7.90;99.90;;;;;;5035333;28;20049;-76
2022/03/17 08:21:40;;;;;;;3.30;0.77;;;7.80;99.90;;;;;;5035420;28;20041;-75
2022/03/17 08:24:07;;;;;;;5.38;0.80;;;7.80;99.90;;;;;;5035798;28;20049;-78
2022/03/17 08:26:33;;;;;;;5.50;0.70;;;7.90;99.90;;;;;;5035078;28;20093;-74
2022/03/17 08:29:00;;;;;;;6.80;0.80;;;7.80;99.90;;;;;;5036080;28;20123;-74
2022/03/17 08:31:28;;;;;;;4.28;0.73;;;7.60;99.90;;;;;;5035273;28;20045;-74
2022/03/17 08:33:56;;;;;;;6.50;0.80;;;7.80;99.90;;;;;;5036245;28;20045;-75
2022/03/17 08:36:23;;;;;;;4.07;0.63;;;7.80;99.90;;;;;;5035255;28;20053;-78
2022/03/17 08:38:51;;;;;;;6.82;0.80;;;7.80;99.90;;;;;;5033647;28;20053;-76
2022/03/17 08:41:18;;;;;;;7.90;0.80;;;8.30;99.90;;;;;;5018406;28;20049;-75
2022/03/17 08:43:44;;;;;;;6.25;0.63;;;7.80;99.90;;;;;;5018669;28;20037;-75
2022/03/17 08:51:38;;;;;;;6.63;0.80;;;7.80;99.90;;;;;;5034895;28;20060;-73
2022/03/17 08:54:04;;;;;;;8.35;0.88;;;7.80;99.90;;;;;;5033726;28;20058;-72
2022/03/17 08:56:32;;;;;;;9.27;1.00;;;7.80;99.90;;;;;;5035732;28;20053;-73
2022/03/17 08:58:59;;;;;;;4.88;0.75;;;7.80;99.90;;;;;;5034329;28;20083;-72
2022/03/17 09:01:24;;;;;;;9.43;0.90;;;8.10;99.90;;;;;;5035414;28;20559;-72
2022/03/17 09:03:52;;;;;;;13.40;1.10;;;7.80;99.90;;;;;;5035643;28;20038;-77
2022/03/17 09:06:18;;;;;;;7.68;1.05;;;7.80;99.90;;;;;;5035718;28;20053;-71
2022/03/17 09:08:44;;;;;;;6.90;0.73;;;8.00;99.90;;;;;;5017812;28;20052;-77
2022/03/17 09:11:13;;;;;;;9.40;1.20;;;7.80;99.90;;;;;;5017894;28;20481;-75
2022/03/17 09:13:40;;;;;;;7.72;1.67;;;7.90;99.90;;;;;;5034593;28;20080;-77
2022/03/17 09:16:06;;;;;;;8.02;0.90;;;7.90;99.90;;;;;;5035665;28;20048;-76
2022/03/17 09:18:32;;;;;;;6.93;1.20;;;8.00;99.90;;;;;;5035480;28;20098;-75
2022/03/17 09:21:01;;;;;;;6.60;0.95;;;7.80;99.90;;;;;;5034094;28;20128;-74
2022/03/17 09:23:29;;;;;;;3.97;0.52;;;7.90;99.90;;;;;;5035495;28;20096;-74
2022/03/17 09:25:55;;;;;;;5.82;0.73;;;7.80;99.90;;;;;;5034584;28;20175;-80
2022/03/17 09:28:22;;;;;;;8.48;0.65;;;8.00;99.90;;;;;;5033897;28;20394;-76
2022/03/17 09:30:50;;;;;;;5.82;0.80;;;7.80;99.90;;;;;;5033392;28;20482;-74
2022/03/17 09:33:17;;;;;;;4.40;0.95;;;7.70;99.90;;;;;;5035097;28;20049;-75
2022/03/17 09:35:43;;;;;;;4.20;0.70;;;7.70;99.90;;;;;;5034635;28;20502;-85
2022/03/17 09:38:09;;;;;;;4.32;0.52;;;8.00;99.90;;;;;;5034944;28;20045;-75
2022/03/17 09:40:36;;;;;;;5.80;0.70;;;7.70;99.90;;;;;;5033635;28;20049;-77
2022/03/17 09:43:18;;;;;;;5.15;0.70;;;7.90;99.90;;;;;;5033954;28;20490;-74
2022/03/17 09:45:46;;;;;;;6.75;1.10;;;7.80;99.90;;;;;;5034995;28;20489;-78
2022/03/17 09:48:14;;;;;;;5.13;0.70;;;7.90;99.90;;;;;;5034691;28;20095;-77
2022/03/17 09:50:41;;;;;;;5.95;1.38;;;8.00;99.90;;;;;;5030393;28;20049;-82
2022/03/17 09:53:09;;;;;;;6.68;1.10;;;8.00;99.90;;;;;;5016240;28;20124;-82
2022/03/17 09:55:35;;;;;;;5.80;1.10;;;8.00;99.90;;;;;;5033611;28;20061;-80
2022/03/17 09:58:03;;;;;;;6.35;0.80;;;8.00;99.90;;;;;;5031645;28;20037;-79
2022/03/17 10:00:48;;;;;;;4.55;0.70;;;8.00;99.90;;;;;;5032782;28;20037;-77
2022/03/17 10:03:29;;;;;;;6.50;0.80;;;7.90;99.90;;;;;;5032225;28;20045;-80
2022/03/17 10:06:02;;;;;;;5.55;0.70;;;8.00;99.90;;;;;;5032344;28;20065;-80
2022/03/17 10:08:29;;;;;;;9.63;0.90;;;7.90;99.90;;;;;;5034001;28;20041;-78
2022/03/17 10:10:57;;;;;;;6.50;1.17;;;8.00;99.90;;;;;;5032542;28;20155;-81
2022/03/17 10:13:28;;;;;;;6.68;0.90;;;8.00;99.90;;;;;;5030584;28;20478;-81
2022/03/17 10:16:08;;;;;;;4.97;0.70;;;7.90;99.90;;;;;;5034080;28;20107;-79
2022/03/17 10:18:37;;;;;;;6.85;0.65;;;7.90;99.90;;;;;;5032847;28;20053;-80
2022/03/17 10:21:12;;;;;;;9.02;0.80;;;7.90;99.90;;;;;;5014203;28;20041;-82
2022/03/17 10:23:50;;;;;;;7.28;1.00;;;8.00;99.90;;;;;;5016087;28;20037;-80
2022/03/17 10:26:36;;;;;;;7.53;1.10;;;8.10;99.90;;;;;;5027066;28;20050;-74
2022/03/17 10:29:10;;;;;;;6.65;0.75;;;8.30;99.90;;;;;;4996561;28;20565;-74
2022/03/17 10:32:00;;;;;;;4.13;0.70;;;8.40;99.90;;;;;;5016052;28;20124;-74
2022/03/17 10:34:29;;;;;;;4.90;1.05;;;8.40;99.90;;;;;;5011250;28;20053;-77
2022/03/17 10:37:16;;;;;;;5.82;0.95;;;8.50;99.90;;;;;;5016462;28;20116;-75
2022/03/17 10:40:07;;;;;;;4.43;0.80;;;8.60;99.90;;;;;;5010014;28;20100;-74
2022/03/17 10:42:36;;;;;;;7.93;0.80;;;8.70;99.90;;;;;;5011520;28;20061;-74
2022/03/17 10:45:05;;;;;;;5.75;0.90;;;8.70;99.90;;;;;;5018537;28;20054;-74
2022/03/17 10:47:38;;;;;;;5.85;0.82;;;8.80;99.90;;;;;;5012940;28;20057;-75
2022/03/17 10:50:11;;;;;;;;;;;8.80;99.90;;;;;;5014834;28;20073;-74
2022/03/17 10:52:46;;;;;;;5.95;0.88;;;8.90;99.90;;;;;;5012683;28;19925;-77
2022/03/17 10:55:13;;;;;;;6.22;1.15;;;8.90;99.90;;;;;;5016760;28;20115;-73
2022/03/17 10:57:39;;;;;;;6.65;0.80;;;8.90;99.90;;;;;;5014972;28;20054;-75
2022/03/17 11:00:09;;;;;;;5.25;1.15;;;8.90;99.90;;;;;;5010512;28;20107;-75
2022/03/17 11:02:37;;;;;;;5.03;0.90;;;9.00;99.90;;;;;;5013376;28;20048;-79
2022/03/17 11:05:06;;;;;;;4.93;0.70;;;9.00;99.90;;;;;;5011909;28;20112;-74
2022/03/17 11:07:32;;;;;;;4.63;1.10;;;9.00;99.90;;;;;;4995445;28;20152;-74
2022/03/17 11:10:05;;;;;;;4.53;0.95;;;9.00;99.90;;;;;;5017247;28;20052;-72
2022/03/17 11:12:31;;;;;;;4.73;1.23;;;9.10;99.90;;;;;;5014933;28;20100;-75
2022/03/17 11:14:57;;;;;;;2.63;0.70;;;9.10;99.90;;;;;;5018691;28;21334;-74
2022/03/17 11:17:29;;;;;;;5.75;0.82;;;9.10;99.90;;;;;;5012195;28;20045;-73
2022/03/17 11:20:02;;;;;;;6.47;0.70;;;9.10;99.90;;;;;;5012745;28;20057;-74
2022/03/17 11:22:29;;;;;;;6.30;0.90;;;9.10;99.90;;;;;;4997229;28;20906;-77
2022/03/17 11:25:23;;;;;;;5.90;0.73;;;9.10;99.90;;;;;;5009982;28;20231;-73
2022/03/17 11:27:56;;;;;;;5.07;0.60;;;9.20;99.90;;;;;;5010532;28;20132;-72
2022/03/17 11:30:27;;;;;;;4.75;0.90;;;9.30;99.90;;;;;;5012423;28;20511;-73
2022/03/17 11:32:56;;;;;;;6.85;0.95;;;9.50;99.90;;;;;;4999681;28;20046;-73
2022/03/17 11:35:25;;;;;;;5.95;0.68;;;9.50;99.90;;;;;;5014613;28;20057;-74
2022/03/17 11:38:23;;;;;;;5.15;0.98;;;9.60;99.90;;;;;;5015665;28;20077;-78
2022/03/17 11:41:21;;;;;;;4.38;0.75;;;9.70;99.90;;;;;;5014612;28;20034;-75
2022/03/17 11:43:47;;;;;;;4.50;1.15;;;9.70;99.90;;;;;;4990484;28;20128;-73
2022/03/17 11:46:18;;;;;;;5.47;0.75;;;9.80;99.90;;;;;;5011065;28;20239;-74
2022/03/17 11:48:45;;;;;;;7.63;1.00;;;9.90;99.90;;;;;;5012141;28;20054;-73
2022/03/17 11:51:15;;;;;;;8.75;1.83;;;10.00;99.90;;;;;;5010493;28;20049;-74
2022/03/17 11:53:51;;;;;;;8.77;0.90;;;10.00;99.90;;;;;;5011323;28;20077;-73
2022/03/17 11:56:47;;;;;;;7.28;1.30;;;10.00;99.90;;;;;;5013281;28;20049;-74
2022/03/17 11:59:19;;;;;;;4.03;0.63;;;10.20;99.90;;;;;;5004501;28;20453;-76
2022/03/17 12:01:46;;;;;;;5.55;0.70;;;10.20;99.90;;;;;;5010302;28;20054;-74
2022/03/17 12:04:46;;;;;;;6.57;0.70;;;10.30;99.90;;;;;;5012703;28;20053;-74
2022/03/17 12:07:13;;;;;;;6.95;0.95;;;10.30;99.90;;;;;;5016296;28;20069;-75
2022/03/17 12:09:40;;;;;;;4.68;1.15;;;10.40;99.90;;;;;;5015004;28;20038;-75
2022/03/17 12:12:26;;;;;;;3.70;0.68;;;10.40;99.90;;;;;;5011274;28;20160;-75
2022/03/17 12:14:57;;;;;;;5.75;0.70;;;10.30;99.90;;;;;;5018679;28;20068;-73
2022/03/17 12:17:24;;;;;;;6.93;0.85;;;10.20;99.90;;;;;;5021770;28;20064;-75
2022/03/17 12:20:10;;;;;;;8.55;0.90;;;10.20;99.90;;;;;;5015958;28;20041;-78
2022/03/17 12:22:39;;;;;;;6.18;1.10;;;10.30;99.90;;;;;;5013262;28;20050;-74
2022/03/17 12:25:11;;;;;;;6.43;1.00;;;10.40;99.90;;;;;;5016874;28;20104;-77
2022/03/17 12:27:39;;;;;;;7.22;1.00;;;10.50;99.90;;;;;;5017318;28;20046;-79
2022/03/17 12:30:05;;;;;;;7.82;0.80;;;10.60;99.90;;;;;;4995410;28;20092;-77
2022/03/17 12:32:39;;;;;;;6.53;1.10;;;10.50;99.90;;;;;;5013235;28;20062;-77
2022/03/17 12:35:09;;;;;;;4.55;0.70;;;10.40;99.90;;;;;;5015817;28;20406;-73
2022/03/17 12:37:39;;;;;;;4.35;0.90;;;10.40;99.90;;;;;;5012587;28;20327;-79
2022/03/17 12:40:15;;;;;;;4.25;0.70;;;10.40;99.90;;;;;;5018076;28;20077;-75
2022/03/17 12:42:44;;;;;;;6.15;0.80;;;10.50;99.90;;;;;;5013227;28;20048;-75
2022/03/17 12:45:17;;;;;;;5.05;0.80;;;10.50;99.90;;;;;;5010857;28;20124;-75
2022/03/17 12:47:47;;;;;;;5.13;0.60;;;10.60;99.90;;;;;;5008725;28;20233;-77
2022/03/17 12:50:16;;;;;;;6.30;1.27;;;10.60;99.90;;;;;;5014355;28;20512;-74
2022/03/17 12:52:43;;;;;;;5.85;1.00;;;10.60;99.90;;;;;;5009275;28;20123;-73
2022/03/17 12:55:11;;;;;;;5.57;1.00;;;10.60;99.90;;;;;;5013559;28;20168;-75
2022/03/17 12:57:38;;;;;;;4.32;0.55;;;10.60;99.90;;;;;;5013785;28;20119;-76
2022/03/17 13:00:06;;;;;;;7.00;0.70;;;10.60;99.90;;;;;;5014396;28;21467;-76
2022/03/17 13:02:32;;;;;;;4.60;0.77;;;10.60;99.90;;;;;;5010723;28;20049;-78